Time;durP1;ratioP1;P1;durP2;ratioP2;P2;SDS_P1;SDS_P2;PMS_P1;PMS_P2;Temp;Humidity;BMP_temperature;BMP_pressure;BME280_temperature;BME280_humidity;BME280_pressure;Samples;Min_cycle;Max_cycle;Signal;HPM_P1;HPM_P2
2023/07/07 00:00:42;;;;;;;4.70;3.77;;;17.30;1.00;;;;;;5118161;28;20516;-48
2023/07/07 00:03:07;;;;;;;4.50;3.70;;;17.30;1.00;;;;;;5117953;28;20183;-49
2023/07/07 00:05:34;;;;;;;5.50;3.90;;;17.20;1.00;;;;;;5117209;28;20266;-48
2023/07/07 00:08:00;;;;;;;3.97;3.57;;;17.20;1.00;;;;;;5117258;28;20184;-48
2023/07/07 00:10:26;;;;;;;4.00;3.70;;;17.10;1.00;;;;;;5117538;28;20466;-48
2023/07/07 00:12:51;;;;;;;5.10;3.80;;;17.10;1.00;;;;;;5115144;28;20211;-49
2023/07/07 00:15:17;;;;;;;4.83;3.53;;;17.00;1.00;;;;;;5115918;28;20241;-50
2023/07/07 00:17:47;;;;;;;4.70;3.77;;;17.00;1.00;;;;;;5114126;28;20475;-48
2023/07/07 00:20:14;;;;;;;6.20;4.50;;;16.90;1.00;;;;;;5114849;28;20425;-49
2023/07/07 00:22:40;;;;;;;4.50;3.70;;;16.80;1.00;;;;;;5115087;28;20508;-48
2023/07/07 00:25:06;;;;;;;5.30;4.00;;;16.80;1.00;;;;;;5115497;28;20473;-50
2023/07/07 00:27:32;;;;;;;4.43;4.03;;;16.80;1.00;;;;;;5116842;28;20517;-48
2023/07/07 00:29:57;;;;;;;4.20;3.73;;;16.80;1.00;;;;;;5100444;28;20425;-48
2023/07/07 00:32:23;;;;;;;7.43;3.90;;;16.70;1.00;;;;;;5118620;28;20193;-46
2023/07/07 00:34:49;;;;;;;4.30;3.90;;;16.70;1.00;;;;;;5119001;28;20180;-51
2023/07/07 00:37:14;;;;;;;5.20;4.20;;;16.60;1.00;;;;;;5117724;28;20210;-49
2023/07/07 00:39:40;;;;;;;5.07;4.20;;;16.60;1.00;;;;;;5118942;28;20267;-49
2023/07/07 00:42:07;;;;;;;4.43;4.10;;;16.60;1.00;;;;;;5118525;28;20243;-48
2023/07/07 00:45:10;;;;;;;4.70;4.20;;;16.50;1.00;;;;;;5118677;28;20179;-46
2023/07/07 00:47:42;;;;;;;8.30;4.23;;;16.50;1.00;;;;;;5116585;28;20491;-49
2023/07/07 00:50:09;;;;;;;4.47;3.93;;;16.50;1.00;;;;;;5115989;28;20490;-46
2023/07/07 00:52:35;;;;;;;4.73;4.23;;;16.50;1.70;;;;;;5115925;28;20902;-48
2023/07/07 00:55:01;;;;;;;5.20;4.60;;;16.50;1.00;;;;;;5116134;28;20424;-47
2023/07/07 00:57:27;;;;;;;5.03;4.37;;;16.50;1.10;;;;;;5116248;28;20839;-50
2023/07/07 00:59:52;;;;;;;5.20;4.30;;;16.50;10.90;;;;;;5116572;28;20468;-48
2023/07/07 01:02:24;;;;;;;7.73;4.70;;;16.50;11.10;;;;;;5117629;28;20464;-50
2023/07/07 01:04:52;;;;;;;4.40;4.00;;;16.50;19.90;;;;;;5100463;28;20254;-50
2023/07/07 01:07:31;;;;;;;3.83;3.43;;;16.50;29.80;;;;;;5118151;28;20414;-49
2023/07/07 01:09:57;;;;;;;5.93;4.77;;;16.40;54.00;;;;;;5117167;28;20546;-49
2023/07/07 01:12:22;;;;;;;6.97;4.60;;;16.40;90.30;;;;;;5116701;28;20434;-48
2023/07/07 01:14:49;;;;;;;5.57;4.33;;;16.40;86.50;;;;;;5116401;28;20241;-50
2023/07/07 01:17:47;;;;;;;4.77;4.00;;;16.40;55.80;;;;;;5098927;28;20199;-48
2023/07/07 01:20:22;;;;;;;4.60;3.87;;;16.40;48.00;;;;;;5117917;28;20426;-48
2023/07/07 01:23:06;;;;;;;7.17;4.93;;;16.40;29.60;;;;;;5118265;28;20461;-48
2023/07/07 01:25:39;;;;;;;4.70;3.83;;;16.40;44.90;;;;;;5117960;28;20715;-48
2023/07/07 01:28:11;;;;;;;6.43;4.40;;;16.40;88.20;;;;;;5099729;28;20903;-48
2023/07/07 01:30:45;;;;;;;5.03;3.77;;;16.40;83.60;;;;;;5118119;28;20442;-51
2023/07/07 01:33:14;;;;;;;6.53;4.93;;;16.40;98.70;;;;;;5117699;28;20870;-47
2023/07/07 01:35:40;;;;;;;4.57;3.93;;;16.30;99.90;;;;;;5099716;28;20701;-47
2023/07/07 01:38:06;;;;;;;5.67;4.27;;;16.30;99.90;;;;;;5116989;28;20590;-50
2023/07/07 01:40:43;;;;;;;5.07;3.90;;;16.30;99.90;;;;;;5116255;28;20194;-48
2023/07/07 01:43:37;;;;;;;5.10;4.60;;;16.20;99.90;;;;;;5099339;28;20862;-51
2023/07/07 01:46:07;;;;;;;8.40;4.90;;;16.20;99.90;;;;;;5085294;28;20442;-46
2023/07/07 01:48:52;;;;;;;4.93;4.40;;;16.20;99.90;;;;;;5115144;28;20477;-49
2023/07/07 01:51:19;;;;;;;4.20;3.70;;;16.20;99.90;;;;;;5098231;28;20425;-46
2023/07/07 01:53:46;;;;;;;5.13;4.40;;;16.20;99.90;;;;;;5080153;28;20572;-47
2023/07/07 01:56:16;;;;;;;4.37;3.97;;;16.20;99.90;;;;;;5095022;28;20434;-48
2023/07/07 01:58:43;;;;;;;5.27;4.57;;;16.20;99.90;;;;;;5096205;28;20414;-48
2023/07/07 02:01:08;;;;;;;5.13;4.00;;;16.20;99.90;;;;;;5097212;28;20792;-49
2023/07/07 02:03:34;;;;;;;4.93;4.37;;;16.20;99.90;;;;;;5115716;28;20429;-49
2023/07/07 02:05:59;;;;;;;5.07;4.57;;;16.10;99.90;;;;;;5116111;28;20184;-48
2023/07/07 02:08:25;;;;;;;5.30;4.80;;;16.10;99.90;;;;;;5116500;28;20179;-49
2023/07/07 02:10:50;;;;;;;6.13;4.80;;;16.10;99.90;;;;;;5117101;28;20184;-47
2023/07/07 02:13:16;;;;;;;5.47;4.03;;;16.00;99.90;;;;;;5117277;28;20376;-47
2023/07/07 02:15:42;;;;;;;4.77;3.97;;;16.00;99.90;;;;;;5116900;28;20183;-50
2023/07/07 02:18:07;;;;;;;4.97;4.57;;;16.00;99.90;;;;;;5116502;28;20186;-49
2023/07/07 02:20:33;;;;;;;4.90;4.40;;;16.00;99.90;;;;;;5116230;28;20218;-50
2023/07/07 02:22:58;;;;;;;5.43;4.93;;;16.00;99.90;;;;;;5115389;28;20184;-47
2023/07/07 02:25:24;;;;;;;5.07;4.57;;;15.90;99.90;;;;;;5115676;28;20243;-47
2023/07/07 02:27:50;;;;;;;4.47;4.07;;;15.90;99.90;;;;;;5115409;28;20249;-51
2023/07/07 02:30:15;;;;;;;4.50;4.10;;;15.90;99.90;;;;;;5115760;28;20638;-50
2023/07/07 02:32:41;;;;;;;5.03;4.43;;;15.90;99.90;;;;;;5115876;28;20536;-49
2023/07/07 02:35:09;;;;;;;5.07;4.30;;;15.90;1.00;;;;;;5116729;28;20172;-48
2023/07/07 02:37:34;;;;;;;5.57;4.53;;;15.90;1.00;;;;;;5098176;28;20282;-49
2023/07/07 02:40:00;;;;;;;4.47;4.00;;;15.90;1.00;;;;;;5116505;28;20448;-47
2023/07/07 02:42:26;;;;;;;5.83;5.20;;;15.90;1.00;;;;;;5116633;28;20171;-48
2023/07/07 02:44:51;;;;;;;5.17;4.67;;;15.80;1.00;;;;;;5116096;28;20506;-48
2023/07/07 02:47:17;;;;;;;4.80;4.40;;;15.80;1.00;;;;;;5116583;28;20542;-49
2023/07/07 02:49:43;;;;;;;5.20;4.70;;;15.70;1.00;;;;;;5115576;28;20425;-47
2023/07/07 02:52:09;;;;;;;6.03;5.43;;;15.70;1.00;;;;;;5115183;28;20203;-51
2023/07/07 02:54:35;;;;;;;9.77;4.80;;;15.70;1.00;;;;;;5115334;28;20882;-51
2023/07/07 02:57:01;;;;;;;5.30;4.80;;;15.60;1.00;;;;;;5114280;28;20548;-48
2023/07/07 02:59:27;;;;;;;5.93;4.80;;;15.70;1.00;;;;;;5116195;28;20748;-50
2023/07/07 03:01:53;;;;;;;5.53;5.00;;;15.70;1.00;;;;;;5114598;28;20600;-50
2023/07/07 03:04:18;;;;;;;6.53;4.87;;;15.60;1.00;;;;;;5113566;28;20187;-50
2023/07/07 03:06:44;;;;;;;8.03;4.90;;;15.60;1.00;;;;;;5112748;28;20451;-48
2023/07/07 03:09:09;;;;;;;5.40;4.90;;;15.60;1.00;;;;;;5113359;28;20550;-48
2023/07/07 03:11:35;;;;;;;5.83;4.60;;;15.60;1.00;;;;;;5114062;28;20194;-47
2023/07/07 03:14:01;;;;;;;5.43;4.63;;;15.60;1.00;;;;;;5113529;28;20478;-50
2023/07/07 03:16:31;;;;;;;6.30;5.30;;;15.50;1.00;;;;;;5113640;28;20172;-51
2023/07/07 03:19:03;;;;;;;6.50;4.53;;;15.50;1.00;;;;;;5114340;28;20175;-48
2023/07/07 03:21:29;;;;;;;5.10;4.33;;;15.50;1.00;;;;;;5114565;28;20774;-52
2023/07/07 03:23:56;;;;;;;5.07;4.23;;;15.40;1.00;;;;;;5114031;28;20540;-48
2023/07/07 03:26:23;;;;;;;4.57;4.07;;;15.40;1.00;;;;;;5114575;28;20900;-48
2023/07/07 03:28:49;;;;;;;6.60;5.07;;;15.40;1.00;;;;;;5097579;28;20527;-47
2023/07/07 03:31:23;;;;;;;4.67;4.27;;;15.40;1.00;;;;;;5114386;28;20409;-48
2023/07/07 03:33:54;;;;;;;6.30;4.50;;;15.40;24.10;;;;;;5111574;28;20263;-48
2023/07/07 03:36:22;;;;;;;7.33;5.17;;;15.40;69.20;;;;;;5111132;28;20425;-48
2023/07/07 03:38:48;;;;;;;5.47;4.87;;;15.40;53.50;;;;;;5112552;28;21021;-47
2023/07/07 03:41:19;;;;;;;5.83;5.20;;;15.40;99.90;;;;;;5113087;28;20425;-47
2023/07/07 03:43:45;;;;;;;4.53;4.13;;;15.40;56.00;;;;;;5113048;28;20452;-47
2023/07/07 03:46:11;;;;;;;5.33;4.47;;;15.40;49.80;;;;;;5113348;28;20445;-52
2023/07/07 03:48:37;;;;;;;5.90;4.90;;;15.40;52.80;;;;;;5113887;28;20248;-48
2023/07/07 03:51:03;;;;;;;4.73;4.33;;;15.40;99.90;;;;;;5113272;28;20815;-49
2023/07/07 03:53:30;;;;;;;4.93;4.43;;;15.40;24.10;;;;;;5113363;28;20208;-48
2023/07/07 03:55:56;;;;;;;5.47;4.60;;;15.40;47.30;;;;;;5113158;28;20494;-48
2023/07/07 03:58:23;;;;;;;5.40;4.53;;;15.50;56.10;;;;;;5112996;28;20429;-48
2023/07/07 04:00:49;;;;;;;5.97;4.53;;;15.50;22.40;;;;;;5113746;28;20421;-47
2023/07/07 04:03:16;;;;;;;5.27;4.77;;;15.50;22.80;;;;;;5115135;28;20425;-50
2023/07/07 04:05:43;;;;;;;5.27;4.77;;;15.60;5.00;;;;;;5113078;28;20183;-49
2023/07/07 04:08:08;;;;;;;4.83;4.23;;;15.70;1.00;;;;;;5115671;28;20699;-51
2023/07/07 04:10:34;;;;;;;6.30;4.60;;;15.80;1.00;;;;;;5114785;28;20429;-48
2023/07/07 04:13:00;;;;;;;5.10;4.60;;;15.90;1.00;;;;;;5114593;28;20212;-49
2023/07/07 04:15:25;;;;;;;5.23;4.60;;;16.00;1.00;;;;;;5114666;28;20175;-48
2023/07/07 04:17:51;;;;;;;5.07;4.57;;;16.00;1.00;;;;;;5116319;28;20191;-51
2023/07/07 04:20:17;;;;;;;5.40;4.90;;;16.00;1.00;;;;;;5116458;28;20172;-50
2023/07/07 04:22:42;;;;;;;5.33;4.73;;;16.10;1.00;;;;;;5116871;28;20203;-50
2023/07/07 04:25:18;;;;;;;6.20;5.30;;;16.00;1.00;;;;;;5080127;28;20254;-49
2023/07/07 04:27:44;;;;;;;6.20;5.60;;;16.00;1.00;;;;;;5115852;28;20293;-48
2023/07/07 04:30:12;;;;;;;5.00;4.60;;;16.00;1.00;;;;;;5113934;28;20452;-48
2023/07/07 04:32:39;;;;;;;6.00;4.43;;;16.00;1.00;;;;;;5113411;28;20700;-50
2023/07/07 04:35:05;;;;;;;7.67;5.40;;;16.10;1.00;;;;;;5113647;28;20405;-51
2023/07/07 04:37:31;;;;;;;9.37;5.10;;;16.20;1.00;;;;;;5078319;28;20445;-46
2023/07/07 04:39:57;;;;;;;5.20;4.60;;;16.30;1.00;;;;;;5114190;28;20846;-49
2023/07/07 04:42:23;;;;;;;7.03;4.90;;;16.40;99.90;;;;;;5112253;28;20425;-50
2023/07/07 04:44:49;;;;;;;6.27;5.13;;;16.40;99.90;;;;;;5114477;28;20437;-49
2023/07/07 04:47:14;;;;;;;5.00;4.23;;;16.40;99.90;;;;;;5114906;28;20267;-49
2023/07/07 04:49:40;;;;;;;12.83;6.20;;;16.50;99.90;;;;;;5117058;28;20175;-47
2023/07/07 04:52:06;;;;;;;12.87;8.03;;;16.60;99.90;;;;;;5117944;28;20176;-51
2023/07/07 04:54:31;;;;;;;22.10;10.43;;;16.70;99.90;;;;;;5118454;28;20226;-49
2023/07/07 04:56:57;;;;;;;6.77;6.00;;;16.80;99.90;;;;;;5117189;28;20212;-51
2023/07/07 04:59:22;;;;;;;7.50;5.93;;;16.90;99.90;;;;;;5115496;28;20164;-51
2023/07/07 05:01:48;;;;;;;6.27;5.40;;;17.00;99.90;;;;;;5112865;28;20187;-49
2023/07/07 05:04:15;;;;;;;6.70;5.77;;;17.00;99.90;;;;;;5113935;28;20187;-51
2023/07/07 05:06:40;;;;;;;11.50;5.60;;;17.00;99.90;;;;;;5113938;28;20479;-50
2023/07/07 05:09:07;;;;;;;6.50;5.20;;;17.00;99.90;;;;;;5112442;28;20673;-48
2023/07/07 05:11:34;;;;;;;5.53;5.00;;;17.00;99.90;;;;;;5113304;28;20184;-48
2023/07/07 05:14:00;;;;;;;5.70;5.20;;;17.00;99.90;;;;;;5111607;28;20537;-46
2023/07/07 05:16:30;;;;;;;5.10;4.47;;;17.10;99.90;;;;;;5113126;28;20421;-47
2023/07/07 05:18:55;;;;;;;5.40;4.90;;;17.20;99.90;;;;;;5114175;28;20590;-46
2023/07/07 05:21:24;;;;;;;5.10;4.70;;;17.30;99.90;;;;;;5117907;27;20516;-46
2023/07/07 05:23:52;;;;;;;5.87;5.03;;;17.40;99.90;;;;;;5114622;27;20188;-48
2023/07/07 05:26:21;;;;;;;5.83;5.00;;;17.60;99.90;;;;;;5115084;28;20420;-49
2023/07/07 05:28:47;;;;;;;6.53;5.50;;;17.70;73.50;;;;;;5114148;28;20584;-48
2023/07/07 05:31:13;;;;;;;5.43;4.93;;;17.90;28.40;;;;;;5112870;28;20865;-50
2023/07/07 05:33:39;;;;;;;4.80;4.30;;;18.00;11.10;;;;;;5114736;28;20207;-47
2023/07/07 05:36:08;;;;;;;5.33;4.60;;;18.10;1.00;;;;;;5113835;28;20172;-47
2023/07/07 05:38:34;;;;;;;8.37;5.63;;;18.20;1.00;;;;;;5114098;28;20421;-47
2023/07/07 05:40:59;;;;;;;5.07;4.50;;;18.30;1.00;;;;;;5111618;28;20410;-47
2023/07/07 05:43:26;;;;;;;5.30;4.80;;;18.40;1.00;;;;;;5112545;28;20306;-49
2023/07/07 05:45:58;;;;;;;6.70;4.77;;;18.60;1.00;;;;;;5102052;28;20194;-46
2023/07/07 05:48:25;;;;;;;6.10;5.40;;;18.70;1.00;;;;;;5110946;28;20436;-47
2023/07/07 05:50:55;;;;;;;6.97;4.87;;;18.90;1.00;;;;;;5091787;28;20430;-46
2023/07/07 05:53:21;;;;;;;5.17;4.50;;;19.00;1.00;;;;;;5108626;28;20717;-47
2023/07/07 05:55:46;;;;;;;4.90;4.40;;;19.10;1.00;;;;;;5110251;28;20882;-45
2023/07/07 05:58:16;;;;;;;5.33;4.50;;;19.20;1.00;;;;;;5107967;28;20258;-47
2023/07/07 06:00:42;;;;;;;5.70;4.37;;;19.40;1.00;;;;;;5110249;28;20488;-45
2023/07/07 06:03:08;;;;;;;5.90;5.30;;;19.50;1.00;;;;;;5110447;28;20494;-49
2023/07/07 06:05:33;;;;;;;6.17;4.97;;;19.60;1.00;;;;;;5110364;28;20409;-45
2023/07/07 06:08:00;;;;;;;6.07;5.47;;;19.80;1.00;;;;;;5110149;28;20175;-47
2023/07/07 06:10:26;;;;;;;6.20;4.90;;;19.80;1.00;;;;;;5094661;28;20563;-48
2023/07/07 06:12:52;;;;;;;6.27;5.23;;;19.90;1.00;;;;;;5113736;28;20476;-53
2023/07/07 06:15:18;;;;;;;6.10;5.00;;;19.90;1.00;;;;;;5114009;28;20421;-47
2023/07/07 06:17:48;;;;;;;6.47;4.40;;;20.00;1.00;;;;;;5112708;28;20444;-47
2023/07/07 06:20:14;;;;;;;5.40;4.30;;;20.10;1.00;;;;;;5112334;28;20470;-46
2023/07/07 06:22:39;;;;;;;6.13;5.50;;;20.10;1.00;;;;;;5112106;28;20413;-45
2023/07/07 06:25:05;;;;;;;6.40;4.67;;;20.10;1.00;;;;;;5113934;28;20759;-46
2023/07/07 06:27:31;;;;;;;5.43;4.70;;;20.20;1.00;;;;;;5113126;28;20188;-45
2023/07/07 06:29:57;;;;;;;5.23;4.73;;;20.40;1.00;;;;;;5114669;28;20429;-46
2023/07/07 06:32:23;;;;;;;5.50;5.00;;;20.50;1.00;;;;;;5112959;28;20421;-46
2023/07/07 06:34:49;;;;;;;7.40;4.97;;;20.60;1.00;;;;;;5113739;28;20184;-48
2023/07/07 06:37:15;;;;;;;4.70;4.30;;;20.70;1.00;;;;;;5115953;28;20413;-48
2023/07/07 06:39:40;;;;;;;6.13;5.13;;;20.90;1.00;;;;;;5112505;28;20439;-45
2023/07/07 06:42:06;;;;;;;5.73;5.20;;;21.00;1.00;;;;;;5111283;28;20450;-47
2023/07/07 06:44:37;;;;;;;6.50;5.50;;;21.10;1.00;;;;;;5093105;28;20232;-46
2023/07/07 06:47:05;;;;;;;5.90;4.83;;;21.20;1.00;;;;;;5110904;28;20163;-46
2023/07/07 06:49:30;;;;;;;5.70;4.97;;;21.30;1.00;;;;;;5093807;28;20432;-47
2023/07/07 06:51:56;;;;;;;5.80;5.00;;;21.40;1.00;;;;;;5111153;28;20616;-47
2023/07/07 06:54:22;;;;;;;7.23;5.73;;;21.50;1.00;;;;;;5111204;28;20219;-46
2023/07/07 06:56:48;;;;;;;5.30;4.77;;;21.60;1.00;;;;;;5093647;28;20425;-46
2023/07/07 06:59:14;;;;;;;6.17;5.43;;;21.60;1.00;;;;;;5111967;28;20446;-46
2023/07/07 07:01:40;;;;;;;6.50;5.20;;;21.60;1.00;;;;;;5094105;28;20271;-49
2023/07/07 07:04:05;;;;;;;6.73;5.30;;;21.80;1.00;;;;;;5109846;28;20676;-50
2023/07/07 07:06:31;;;;;;;5.50;5.00;;;22.00;1.00;;;;;;5109671;28;20436;-54
2023/07/07 07:08:57;;;;;;;6.87;5.30;;;22.20;1.00;;;;;;5108234;28;20201;-49
2023/07/07 07:11:22;;;;;;;7.20;5.30;;;22.50;1.00;;;;;;5109520;28;20468;-44
2023/07/07 07:13:48;;;;;;;5.77;5.17;;;22.60;1.00;;;;;;5110771;28;20207;-49
2023/07/07 07:16:13;;;;;;;6.13;5.47;;;22.80;1.00;;;;;;5111355;28;20191;-43
2023/07/07 07:18:39;;;;;;;9.60;5.37;;;23.00;1.00;;;;;;5110497;28;20198;-49
2023/07/07 07:21:05;;;;;;;7.77;5.60;;;23.00;1.00;;;;;;5111608;28;20254;-51
2023/07/07 07:23:30;;;;;;;6.73;6.03;;;23.10;1.00;;;;;;5111853;28;20172;-48
2023/07/07 07:25:56;;;;;;;6.10;5.17;;;23.20;1.00;;;;;;5111888;28;20266;-49
2023/07/07 07:28:21;;;;;;;5.27;4.77;;;23.30;1.00;;;;;;5111811;28;20180;-52
2023/07/07 07:30:48;;;;;;;7.00;5.23;;;23.40;1.00;;;;;;5110669;28;20553;-46
2023/07/07 07:33:18;;;;;;;7.50;6.50;;;23.60;1.00;;;;;;5112659;28;20616;-47
2023/07/07 07:35:44;;;;;;;5.50;5.00;;;23.90;1.00;;;;;;5112414;28;20452;-47
2023/07/07 07:38:09;;;;;;;6.13;5.00;;;24.10;1.00;;;;;;5112664;28;20438;-48
2023/07/07 07:40:35;;;;;;;8.30;5.73;;;24.20;1.00;;;;;;5112943;28;20179;-49
2023/07/07 07:43:01;;;;;;;11.07;5.60;;;24.40;1.00;;;;;;5112098;28;20188;-52
2023/07/07 07:45:27;;;;;;;6.10;5.30;;;24.50;1.00;;;;;;5095261;28;20577;-52
2023/07/07 07:47:52;;;;;;;6.50;5.90;;;24.60;1.00;;;;;;5112898;28;20586;-47
2023/07/07 07:50:19;;;;;;;6.50;5.77;;;24.80;1.00;;;;;;5114399;28;20175;-48
2023/07/07 07:52:44;;;;;;;9.87;5.77;;;24.90;1.00;;;;;;5113446;28;20319;-48
2023/07/07 07:55:10;;;;;;;7.10;5.47;;;24.90;1.00;;;;;;5112894;28;21069;-48
2023/07/07 07:57:36;;;;;;;6.90;5.07;;;24.90;1.00;;;;;;5116694;28;20255;-50
2023/07/07 08:00:04;;;;;;;5.50;5.00;;;25.10;1.00;;;;;;5081174;28;20208;-48
2023/07/07 08:02:31;;;;;;;6.93;5.33;;;25.40;1.00;;;;;;5098624;28;20217;-47
2023/07/07 08:04:56;;;;;;;7.73;5.67;;;25.60;1.00;;;;;;5114936;28;20406;-47
2023/07/07 08:07:22;;;;;;;7.63;5.90;;;25.60;1.00;;;;;;5111997;28;20453;-51
2023/07/07 08:09:48;;;;;;;8.23;5.90;;;25.60;1.00;;;;;;5113800;28;20255;-46
2023/07/07 08:12:14;;;;;;;5.27;4.77;;;25.60;1.00;;;;;;5111730;28;20207;-48
2023/07/07 08:14:39;;;;;;;5.60;5.03;;;25.50;1.00;;;;;;5111822;28;20301;-44
2023/07/07 08:17:11;;;;;;;5.80;5.20;;;25.60;1.00;;;;;;5111446;28;20418;-43
2023/07/07 08:19:39;;;;;;;7.73;6.03;;;25.80;1.00;;;;;;5113568;28;20210;-45
2023/07/07 08:22:07;;;;;;;6.77;5.53;;;26.00;1.00;;;;;;5115730;28;20417;-43
2023/07/07 08:24:39;;;;;;;6.63;5.57;;;26.10;1.00;;;;;;5114569;28;20477;-43
2023/07/07 08:27:06;;;;;;;5.97;5.37;;;26.10;1.00;;;;;;5115591;28;20760;-43
2023/07/07 08:29:32;;;;;;;7.27;5.60;;;26.00;1.00;;;;;;5115474;28;20418;-44
2023/07/07 08:31:57;;;;;;;6.47;5.83;;;26.10;1.00;;;;;;5116484;28;20508;-43
2023/07/07 08:34:23;;;;;;;6.47;5.87;;;26.30;1.00;;;;;;5115659;28;20195;-45
2023/07/07 08:36:49;;;;;;;7.53;6.83;;;26.50;1.00;;;;;;5114611;28;20179;-44
2023/07/07 08:39:18;;;;;;;7.83;6.40;;;26.70;1.00;;;;;;5114354;28;20176;-47
2023/07/07 08:41:56;;;;;;;5.87;5.33;;;26.90;1.00;;;;;;5112417;28;20539;-44
2023/07/07 08:44:24;;;;;;;7.60;6.63;;;27.30;1.00;;;;;;5111959;28;20405;-44
2023/07/07 08:46:58;;;;;;;7.20;5.97;;;27.40;1.00;;;;;;5092430;28;20449;-45
2023/07/07 08:49:45;;;;;;;7.30;6.50;;;27.30;1.00;;;;;;5109752;28;20448;-44
2023/07/07 08:52:46;;;;;;;7.20;6.20;;;27.20;1.00;;;;;;5105519;28;20467;-42
2023/07/07 08:55:30;;;;;;;7.03;6.33;;;27.30;1.00;;;;;;5111302;28;20573;-43
2023/07/07 08:58:13;;;;;;;7.80;5.60;;;27.30;1.00;;;;;;5110784;28;20413;-44
2023/07/07 09:00:57;;;;;;;9.90;6.67;;;27.50;1.00;;;;;;5112947;28;20820;-45
2023/07/07 09:03:38;;;;;;;6.50;5.80;;;27.70;1.00;;;;;;5112266;28;20417;-44
2023/07/07 09:06:16;;;;;;;7.90;6.60;;;27.70;1.00;;;;;;5111875;28;20791;-45
2023/07/07 09:08:48;;;;;;;7.17;6.53;;;27.80;1.00;;;;;;5114919;28;20452;-45
2023/07/07 09:11:52;;;;;;;10.20;6.53;;;28.10;1.00;;;;;;5114698;28;20494;-44
2023/07/07 09:14:18;;;;;;;6.93;6.23;;;28.40;1.00;;;;;;5093994;28;20472;-43
2023/07/07 09:16:45;;;;;;;8.70;7.13;;;29.00;1.00;;;;;;5114034;28;20491;-43
2023/07/07 09:19:22;;;;;;;8.13;7.33;;;28.90;1.00;;;;;;5112117;28;20843;-44
2023/07/07 09:21:51;;;;;;;7.40;6.70;;;29.00;1.00;;;;;;5099872;28;20551;-44
2023/07/07 09:24:25;;;;;;;8.50;7.63;;;29.30;1.00;;;;;;5108844;28;20444;-44
2023/07/07 09:26:56;;;;;;;9.40;7.00;;;29.70;1.00;;;;;;5072838;28;20398;-45
2023/07/07 09:29:26;;;;;;;7.87;7.10;;;29.50;1.00;;;;;;5073288;28;20412;-46
2023/07/07 09:31:51;;;;;;;9.53;6.97;;;29.50;1.00;;;;;;5072813;28;20419;-45
2023/07/07 09:34:17;;;;;;;7.97;7.17;;;29.70;1.00;;;;;;5089682;28;20531;-43
2023/07/07 09:36:50;;;;;;;9.33;8.33;;;29.60;1.00;;;;;;5073706;28;20272;-45
2023/07/07 09:39:38;;;;;;;9.10;7.80;;;29.40;1.00;;;;;;5071620;28;20554;-43
2023/07/07 09:42:25;;;;;;;8.40;7.30;;;29.30;1.00;;;;;;5086735;28;20705;-46
2023/07/07 09:44:56;;;;;;;8.77;7.40;;;29.40;1.00;;;;;;5093769;28;20815;-46
2023/07/07 09:47:30;;;;;;;9.53;7.83;;;29.80;1.00;;;;;;5090437;28;20467;-46
2023/07/07 09:50:23;;;;;;;7.47;6.77;;;30.10;1.00;;;;;;5066703;28;20472;-45
2023/07/07 09:52:52;;;;;;;9.07;8.17;;;30.40;1.00;;;;;;5088455;28;20414;-45
2023/07/07 09:55:24;;;;;;;9.83;8.83;;;30.80;1.00;;;;;;5070420;28;20493;-43
2023/07/07 09:58:11;;;;;;;8.27;7.47;;;30.80;1.00;;;;;;5072667;28;20431;-44
2023/07/07 10:00:37;;;;;;;9.27;8.37;;;31.10;1.00;;;;;;5091660;28;20414;-45
2023/07/07 10:03:35;;;;;;;8.93;8.07;;;31.60;1.00;;;;;;5093955;28;20457;-43
2023/07/07 10:06:18;;;;;;;10.03;9.13;;;32.20;1.00;;;;;;5094932;28;20409;-43
2023/07/07 10:08:43;;;;;;;10.90;8.83;;;31.90;1.00;;;;;;5077140;28;20659;-44
2023/07/07 10:11:20;;;;;;;9.30;8.40;;;31.60;1.00;;;;;;5095364;28;20739;-44
2023/07/07 10:13:47;;;;;;;9.33;8.47;;;31.30;1.00;;;;;;5076141;28;20233;-44
2023/07/07 10:16:34;;;;;;;9.77;8.83;;;31.00;1.00;;;;;;5090269;28;20446;-45
2023/07/07 10:19:14;;;;;;;10.80;9.70;;;30.70;1.00;;;;;;5071840;28;20481;-47
2023/07/07 10:21:40;;;;;;;10.17;9.20;;;30.40;1.00;;;;;;5090539;28;20828;-43
2023/07/07 10:24:06;;;;;;;9.67;8.77;;;29.80;1.00;;;;;;5073869;28;20474;-45
2023/07/07 10:26:32;;;;;;;10.03;9.03;;;29.70;1.00;;;;;;5089814;28;20180;-45
2023/07/07 10:29:00;;;;;;;10.00;9.00;;;30.00;1.00;;;;;;5089972;28;20420;-46
2023/07/07 10:31:27;;;;;;;9.60;8.70;;;30.30;1.00;;;;;;5090928;28;20438;-44
2023/07/07 10:34:16;;;;;;;10.67;9.57;;;30.40;1.00;;;;;;5090300;28;20469;-43
2023/07/07 10:36:42;;;;;;;9.90;8.90;;;30.70;1.00;;;;;;5089611;28;20450;-43
2023/07/07 10:39:08;;;;;;;10.07;9.10;;;30.90;1.00;;;;;;5092777;28;20429;-43
2023/07/07 10:41:33;;;;;;;10.63;9.57;;;30.90;1.00;;;;;;5088914;28;20697;-44
2023/07/07 10:43:59;;;;;;;13.80;12.00;;;30.80;1.00;;;;;;5091615;28;20467;-43
2023/07/07 10:46:25;;;;;;;12.47;11.17;;;30.90;1.00;;;;;;5088323;28;20194;-45
2023/07/07 10:48:52;;;;;;;11.53;10.47;;;31.00;1.00;;;;;;5092047;28;20300;-44
2023/07/07 10:51:41;;;;;;;10.87;9.80;;;31.50;1.00;;;;;;5085878;28;20436;-44
2023/07/07 10:54:42;;;;;;;10.30;9.30;;;31.80;1.00;;;;;;5092307;28;20892;-43
2023/07/07 10:57:28;;;;;;;11.60;10.40;;;31.80;1.00;;;;;;5043254;28;20442;-44
2023/07/07 11:00:22;;;;;;;10.83;9.77;;;31.20;1.00;;;;;;5092835;28;20680;-45
2023/07/07 11:03:14;;;;;;;11.50;10.50;;;31.60;1.00;;;;;;5089926;28;20440;-43
2023/07/07 11:05:46;;;;;;;11.23;9.60;;;31.60;1.00;;;;;;5089354;28;20430;-46
2023/07/07 11:08:26;;;;;;;10.00;9.03;;;31.40;1.00;;;;;;5070123;28;20399;-45
2023/07/07 11:11:04;;;;;;;10.90;10.00;;;31.50;1.00;;;;;;5086604;28;20410;-45
2023/07/07 11:14:02;;;;;;;11.07;10.07;;;32.00;1.00;;;;;;5086724;28;20787;-44
2023/07/07 11:16:46;;;;;;;10.33;9.20;;;32.80;1.00;;;;;;5082339;28;20424;-49
2023/07/07 11:19:40;;;;;;;9.67;8.67;;;32.90;1.00;;;;;;5072071;28;20433;-51
2023/07/07 11:22:25;;;;;;;9.93;9.03;;;32.90;1.00;;;;;;5072126;28;20438;-44
2023/07/07 11:24:56;;;;;;;10.77;9.70;;;33.70;1.00;;;;;;5098945;28;20469;-46
2023/07/07 11:27:22;;;;;;;10.03;8.93;;;33.90;1.00;;;;;;5111678;28;20408;-45
2023/07/07 11:29:56;;;;;;;11.13;10.13;;;33.50;1.00;;;;;;5114351;28;20852;-46
2023/07/07 11:32:25;;;;;;;10.50;9.50;;;33.80;1.00;;;;;;5116589;28;20167;-45
2023/07/07 11:35:18;;;;;;;12.03;10.77;;;34.40;1.00;;;;;;5114034;28;20480;-45
2023/07/07 11:37:59;;;;;;;11.47;10.40;;;33.90;1.00;;;;;;5097052;28;20407;-45
2023/07/07 11:40:43;;;;;;;10.57;9.57;;;33.80;1.00;;;;;;5112856;28;20399;-46
2023/07/07 11:43:21;;;;;;;10.03;9.10;;;33.70;1.00;;;;;;5096176;28;20429;-47
2023/07/07 11:46:17;;;;;;;10.90;9.60;;;33.80;1.00;;;;;;5113222;28;20707;-45
2023/07/07 11:48:55;;;;;;;10.80;9.80;;;34.50;1.00;;;;;;5114341;28;20678;-44
2023/07/07 11:51:39;;;;;;;12.50;11.30;;;35.10;1.00;;;;;;5114319;28;20576;-44
2023/07/07 11:54:23;;;;;;;11.13;10.00;;;34.70;1.00;;;;;;5113717;28;20998;-47
2023/07/07 11:57:21;;;;;;;11.00;10.00;;;35.20;1.00;;;;;;5114184;28;20399;-43
2023/07/07 12:00:12;;;;;;;10.57;9.57;;;35.80;1.00;;;;;;5071030;28;20435;-45
2023/07/07 12:02:49;;;;;;;11.90;10.80;;;36.00;1.00;;;;;;5096303;28;20544;-44
2023/07/07 12:05:27;;;;;;;11.47;10.27;;;36.00;1.00;;;;;;5098203;28;20455;-46
2023/07/07 12:07:59;;;;;;;12.40;9.70;;;35.70;1.00;;;;;;5109009;28;20404;-45
2023/07/07 12:10:29;;;;;;;10.67;9.63;;;35.90;1.00;;;;;;5096882;28;20712;-45
2023/07/07 12:13:07;;;;;;;11.30;10.10;;;35.80;1.00;;;;;;5096223;28;20916;-44
2023/07/07 12:15:39;;;;;;;10.83;9.83;;;35.30;1.00;;;;;;5078966;28;20411;-44
2023/07/07 12:18:15;;;;;;;11.70;9.40;;;34.70;1.00;;;;;;5096927;28;20576;-48
2023/07/07 12:20:45;;;;;;;10.90;9.90;;;34.90;1.00;;;;;;5096820;28;20587;-46
2023/07/07 12:23:15;;;;;;;10.70;9.63;;;35.50;1.00;;;;;;5094614;28;20400;-47
2023/07/07 12:25:41;;;;;;;10.30;9.30;;;36.50;1.00;;;;;;5095642;28;20501;-45
2023/07/07 12:28:08;;;;;;;9.40;8.50;;;37.40;1.00;;;;;;5116381;28;20419;-47
2023/07/07 12:30:43;;;;;;;10.23;9.33;;;38.20;1.00;;;;;;5116839;28;20404;-44
2023/07/07 12:33:08;;;;;;;11.43;10.43;;;38.80;1.00;;;;;;5098433;28;20507;-47
2023/07/07 12:35:47;;;;;;;10.43;9.50;;;38.40;1.00;;;;;;5115309;28;20388;-45
2023/07/07 12:38:21;;;;;;;11.20;10.00;;;37.50;1.00;;;;;;5115288;28;20195;-47
2023/07/07 12:40:48;;;;;;;10.90;9.80;;;37.30;1.00;;;;;;5115108;28;20428;-44
2023/07/07 12:43:39;;;;;;;10.03;9.13;;;36.90;1.00;;;;;;5096519;28;20586;-46
2023/07/07 12:46:06;;;;;;;11.27;10.27;;;36.40;1.00;;;;;;5107859;28;20600;-45
2023/07/07 12:48:32;;;;;;;10.20;9.30;;;36.20;1.00;;;;;;5097396;28;20601;-44
2023/07/07 12:51:00;;;;;;;11.23;10.23;;;36.30;1.00;;;;;;5116654;28;20479;-44
2023/07/07 12:53:27;;;;;;;9.30;8.40;;;36.20;1.00;;;;;;5115881;28;20204;-43
2023/07/07 12:56:05;;;;;;;10.20;9.20;;;36.00;1.00;;;;;;5114562;28;20385;-42
2023/07/07 12:58:36;;;;;;;10.80;9.80;;;36.30;1.00;;;;;;5100221;28;20456;-44
2023/07/07 13:01:25;;;;;;;9.93;9.03;;;36.70;1.00;;;;;;5117637;28;20714;-45
2023/07/07 13:04:08;;;;;;;10.10;9.00;;;36.60;1.00;;;;;;5107670;28;20874;-45
2023/07/07 13:06:44;;;;;;;9.73;8.57;;;36.00;1.00;;;;;;5117757;28;20702;-43
2023/07/07 13:09:11;;;;;;;11.13;9.57;;;35.70;1.00;;;;;;5116963;28;20468;-44